createdAt,value
2023-05-20T00:00:45.527Z,95676.06
2023-05-20T00:05:48.243Z,95671.50
2023-05-20T00:10:50.874Z,95674.50
2023-05-20T00:15:53.473Z,95671.31
2023-05-20T00:20:55.837Z,95674.47
2023-05-20T00:26:00.469Z,95674.13
2023-05-20T00:31:03.794Z,95672.28
2023-05-20T00:36:06.367Z,95664.50
2023-05-20T00:41:09.190Z,95673.69
2023-05-20T00:46:11.832Z,95672.06
2023-05-20T00:51:14.791Z,95678.22
2023-05-20T00:56:17.515Z,95670.75
2023-05-20T01:01:20.128Z,95669.69
2023-05-20T01:06:22.842Z,95668.06
2023-05-20T01:11:25.308Z,95663.69
2023-05-20T01:16:28.051Z,95654.66
2023-05-20T01:21:30.929Z,95650.03
2023-05-20T01:26:33.600Z,95645.22
2023-05-20T01:31:36.918Z,95654.41
2023-05-20T01:36:39.750Z,95642.53
2023-05-20T01:41:42.120Z,95648.81
2023-05-20T01:46:44.527Z,95647.19
2023-05-20T01:51:46.848Z,95643.13
2023-05-20T01:56:49.785Z,95641.81
2023-05-20T02:01:52.425Z,95643.09
2023-05-20T02:06:54.866Z,95632.22
2023-05-20T02:11:57.201Z,95634.53
2023-05-20T02:16:59.628Z,95635.19
2023-05-20T02:22:02.375Z,95638.41
2023-05-20T02:27:05.188Z,95642.00
2023-05-20T02:32:09.230Z,95648.88
2023-05-20T02:37:12.094Z,95646.19
2023-05-20T02:42:14.510Z,95639.53
2023-05-20T02:47:17.138Z,95642.56
2023-05-20T02:52:20.270Z,95663.47
2023-05-20T02:57:22.865Z,95648.94
2023-05-20T03:02:25.290Z,95641.72
2023-05-20T03:07:28.129Z,95641.97
2023-05-20T03:12:31.048Z,95642.72
2023-05-20T03:17:34.004Z,95640.53
2023-05-20T03:22:36.823Z,95644.09
2023-05-20T03:27:39.896Z,95652.75
2023-05-20T03:32:42.848Z,95645.78
2023-05-20T03:37:45.895Z,95641.41
2023-05-20T03:42:48.569Z,95647.59
2023-05-20T03:47:51.204Z,95653.38
2023-05-20T03:52:53.632Z,95652.91
2023-05-20T03:57:56.030Z,95655.78
2023-05-20T04:02:58.469Z,95659.69
2023-05-20T04:08:01.248Z,95651.53
2023-05-20T04:13:04.072Z,95647.28
2023-05-20T04:18:07.279Z,95640.25
2023-05-20T04:23:10.134Z,95642.03
2023-05-20T04:28:14.412Z,95645.78
2023-05-20T04:33:18.800Z,95641.69
2023-05-20T04:38:21.510Z,95644.91
2023-05-20T04:43:24.241Z,95639.84
2023-05-20T04:48:26.553Z,95632.31
2023-05-20T04:53:30.487Z,95636.72
2023-05-20T04:58:33.675Z,95640.22
2023-05-20T05:03:36.798Z,95643.81
2023-05-20T05:08:39.715Z,95649.31
2023-05-20T05:13:42.434Z,95640.38
2023-05-20T05:18:45.241Z,95634.22
2023-05-20T05:23:48.088Z,95626.66
2023-05-20T05:28:50.859Z,95619.19
2023-05-20T05:33:53.373Z,95625.91
2023-05-20T05:38:56.186Z,95628.94
2023-05-20T05:43:58.525Z,95633.22
2023-05-20T05:49:00.949Z,95637.38
2023-05-20T05:54:03.306Z,95627.78
2023-05-20T05:59:05.931Z,95635.91
2023-05-20T06:04:08.421Z,95636.59
2023-05-20T06:09:10.833Z,95632.13
2023-05-20T06:14:13.157Z,95635.47
2023-05-20T06:19:15.577Z,95638.13
2023-05-20T06:24:18.036Z,95634.03
2023-05-20T06:29:20.867Z,95621.31
2023-05-20T06:34:23.225Z,95609.91
2023-05-20T06:39:25.620Z,95611.31
2023-05-20T06:44:28.027Z,95604.69
2023-05-20T06:49:30.392Z,95612.50
2023-05-20T06:54:34.147Z,95607.44
2023-05-20T06:59:36.525Z,95602.69
2023-05-20T07:04:38.882Z,95596.94
2023-05-20T07:09:41.287Z,95595.56
2023-05-20T07:14:43.669Z,95583.69
2023-05-20T07:19:46.274Z,95568.94
2023-05-20T07:24:48.707Z,95572.16
2023-05-20T07:29:51.104Z,95568.66
2023-05-20T07:34:53.534Z,95564.34
2023-05-20T07:39:56.111Z,95559.91
2023-05-20T07:44:58.469Z,95557.94
2023-05-20T07:50:00.854Z,95561.97
2023-05-20T07:55:03.788Z,95559.25
2023-05-20T08:00:06.407Z,95558.66
2023-05-20T08:05:08.806Z,95563.06
2023-05-20T08:10:11.234Z,95549.59
2023-05-20T08:15:13.576Z,95552.41
2023-05-20T08:20:15.949Z,95532.84
2023-05-20T08:25:18.420Z,95519.13
2023-05-20T08:30:20.918Z,95525.78
2023-05-20T08:35:24.722Z,95525.25
2023-05-20T08:40:27.332Z,95512.72
2023-05-20T08:45:29.759Z,95519.47
2023-05-20T08:50:32.511Z,95512.56
2023-05-20T08:55:35.121Z,95514.97
2023-05-20T09:00:38.368Z,95509.19
2023-05-20T09:05:40.815Z,95499.84
2023-05-20T09:10:43.256Z,95507.59
2023-05-20T09:15:45.646Z,95504.25
2023-05-20T09:20:48.153Z,95512.81
2023-05-20T09:25:51.023Z,95507.91
2023-05-20T09:30:53.385Z,95505.66
2023-05-20T09:35:55.754Z,95504.56
2023-05-20T09:41:01.586Z,95507.38
2023-05-20T09:46:04.261Z,95502.56
2023-05-20T09:51:07.236Z,95502.41
2023-05-20T09:56:09.658Z,95489.75
2023-05-20T10:01:12.152Z,95475.88
2023-05-20T10:06:14.578Z,95489.19
2023-05-20T10:11:17.436Z,95484.84
2023-05-20T10:16:20.523Z,95478.03
2023-05-20T10:21:24.766Z,95475.03
2023-05-20T10:26:27.515Z,95470.59
2023-05-20T10:31:34.926Z,95462.09
2023-05-20T10:36:37.480Z,95455.75
2023-05-20T10:41:40.338Z,95442.19
2023-05-20T10:51:51.564Z,95427.47
2023-05-20T10:56:54.167Z,95429.75
2023-05-20T11:01:56.693Z,95424.38
2023-05-20T11:06:59.088Z,95423.44
2023-05-20T11:12:01.752Z,95410.69
2023-05-20T11:17:04.992Z,95415.16
2023-05-20T11:22:07.783Z,95425.59
2023-05-20T11:27:10.615Z,95411.69
2023-05-20T11:32:13.616Z,95406.03
2023-05-20T11:37:18.181Z,95417.13
2023-05-20T11:42:21.501Z,95393.28
2023-05-20T11:47:24.240Z,95389.16
2023-05-20T11:52:26.837Z,95374.88
2023-05-20T11:57:29.650Z,95378.63
2023-05-20T12:02:32.567Z,95378.19
2023-05-20T12:07:34.983Z,95368.81
2023-05-20T12:12:37.647Z,95369.91
2023-05-20T12:17:40.060Z,95370.69
2023-05-20T12:22:42.478Z,95371.06
2023-05-20T12:27:48.475Z,95369.81
2023-05-20T12:32:51.048Z,95354.69
2023-05-20T12:37:53.452Z,95348.56
2023-05-20T12:42:55.771Z,95358.06
2023-05-20T12:47:58.217Z,95360.16
2023-05-20T12:53:01.120Z,95346.69
2023-05-20T12:58:03.658Z,95358.16
2023-05-20T13:03:06.557Z,95360.47
2023-05-20T13:08:11.053Z,95348.00
2023-05-20T13:13:21.556Z,95351.13
2023-05-20T13:18:24.310Z,95347.03
2023-05-20T13:23:27.157Z,95331.25
2023-05-20T13:28:29.551Z,95341.25
2023-05-20T13:33:32.140Z,95330.25
2023-05-20T13:38:35.294Z,95325.75
2023-05-20T13:43:42.073Z,95317.09
2023-05-20T13:48:44.420Z,95315.94
2023-05-20T13:53:47.148Z,95319.72
2023-05-20T13:58:49.581Z,95311.97
2023-05-20T14:03:52.611Z,95307.41
2023-05-20T14:08:55.835Z,95298.91
2023-05-20T14:13:58.280Z,95307.69
2023-05-20T14:19:00.996Z,95304.66
2023-05-20T14:24:03.427Z,95292.03
2023-05-20T14:29:05.774Z,95288.91
2023-05-20T14:34:08.104Z,95281.72
2023-05-20T14:39:10.491Z,95283.28
2023-05-20T14:44:12.806Z,95283.06
2023-05-20T14:49:15.193Z,95270.38
2023-05-20T14:54:19.083Z,95274.47
2023-05-20T14:59:21.475Z,95271.78
2023-05-20T15:04:23.825Z,95265.75
2023-05-20T15:09:26.247Z,95265.94
2023-05-20T15:14:28.768Z,95263.97
2023-05-20T15:19:31.260Z,95264.50
2023-05-20T15:24:34.007Z,95272.09
2023-05-20T15:29:37.474Z,95260.84
2023-05-20T15:34:41.129Z,95265.56
2023-05-20T15:39:43.485Z,95263.63
2023-05-20T15:44:45.922Z,95259.88
2023-05-20T15:49:48.447Z,95270.44
2023-05-20T15:54:51.262Z,95271.47
2023-05-20T15:59:53.617Z,95271.03
2023-05-20T16:04:56.068Z,95266.56
2023-05-20T16:09:58.417Z,95273.13
2023-05-20T16:15:00.742Z,95262.81
2023-05-20T16:20:04.773Z,95249.38
2023-05-20T16:25:07.125Z,95243.38
2023-05-20T16:30:10.351Z,95240.16
2023-05-20T16:35:14.305Z,95249.22
2023-05-20T16:40:19.252Z,95253.97
2023-05-20T16:45:22.023Z,95257.41
2023-05-20T16:50:24.609Z,95262.69
2023-05-20T16:55:27.511Z,95258.00
2023-05-20T17:00:30.174Z,95262.75
2023-05-20T17:05:32.562Z,95256.84
2023-05-20T17:10:35.192Z,95259.16
2023-05-20T17:15:37.916Z,95269.72
2023-05-20T17:20:40.735Z,95264.84
2023-05-20T17:25:43.356Z,95262.22
2023-05-20T17:30:45.791Z,95258.16
2023-05-20T17:35:48.530Z,95269.34
2023-05-20T17:40:50.989Z,95280.91
2023-05-20T17:45:53.455Z,95286.84
2023-05-20T17:50:58.222Z,95284.38
2023-05-20T17:56:01.536Z,95280.56
2023-05-20T18:01:04.175Z,95286.34
2023-05-20T18:06:06.582Z,95285.22
2023-05-20T18:11:10.371Z,95290.09
2023-05-20T18:16:12.767Z,95299.75
2023-05-20T18:21:15.491Z,95294.59
2023-05-20T18:26:18.091Z,95299.34
2023-05-20T18:31:21.032Z,95300.19
2023-05-20T18:36:23.920Z,95302.72
2023-05-20T18:41:32.417Z,95301.56
2023-05-20T18:46:42.170Z,95298.78
2023-05-20T18:51:44.829Z,95299.53
2023-05-20T18:56:48.763Z,95305.25
2023-05-20T19:01:51.152Z,95299.25
2023-05-20T19:06:53.942Z,95300.25
2023-05-20T19:11:58.997Z,95300.25
2023-05-20T19:17:01.952Z,95302.59
2023-05-20T19:22:04.384Z,95314.78
2023-05-20T19:27:07.193Z,95322.31
2023-05-20T19:32:09.984Z,95330.22
2023-05-20T19:37:12.777Z,95335.06
2023-05-20T19:42:15.432Z,95330.78
2023-05-20T19:47:17.780Z,95333.84
2023-05-20T19:52:20.656Z,95342.84
2023-05-20T19:57:23.379Z,95346.06
2023-05-20T20:02:26.170Z,95355.97
2023-05-20T20:07:29.127Z,95349.91
2023-05-20T20:12:31.964Z,95352.59
2023-05-20T20:17:35.036Z,95347.66
2023-05-20T20:22:37.749Z,95350.22
2023-05-20T20:27:41.782Z,95353.28
2023-05-20T20:32:44.188Z,95354.41
2023-05-20T20:37:46.551Z,95347.69
2023-05-20T20:42:49.149Z,95349.13
2023-05-20T20:47:54.906Z,95361.22
2023-05-20T20:52:58.251Z,95352.94
2023-05-20T20:58:03.014Z,95356.28
2023-05-20T21:03:08.168Z,95353.88
2023-05-20T21:08:13.078Z,95353.22
2023-05-20T21:13:15.970Z,95356.34
2023-05-20T21:18:22.139Z,95358.78
2023-05-20T21:23:24.883Z,95352.38
2023-05-20T21:28:27.253Z,95351.38
2023-05-20T21:33:29.615Z,95352.00
2023-05-20T21:38:31.925Z,95345.44
2023-05-20T21:43:35.843Z,95350.25
2023-05-20T21:48:38.194Z,95343.53
2023-05-20T21:53:40.824Z,95351.91
2023-05-20T21:58:43.187Z,95360.47
2023-05-20T22:03:48.862Z,95348.06
2023-05-20T22:08:53.014Z,95350.91
2023-05-20T22:13:55.409Z,95345.66
2023-05-20T22:18:57.813Z,95338.38
2023-05-20T22:24:00.317Z,95340.81
2023-05-20T22:29:02.709Z,95322.53
2023-05-20T22:34:05.457Z,95329.63
2023-05-20T22:39:08.021Z,95320.09
2023-05-20T22:44:10.595Z,95319.44
2023-05-20T22:49:13.060Z,95320.28
2023-05-20T22:54:15.503Z,95311.31
2023-05-20T22:59:17.823Z,95304.38
2023-05-20T23:04:20.347Z,95298.81
2023-05-20T23:09:22.745Z,95297.22
2023-05-20T23:14:25.172Z,95296.75
2023-05-20T23:19:27.702Z,95283.72
2023-05-20T23:24:30.125Z,95286.59
2023-05-20T23:29:32.682Z,95284.53
2023-05-20T23:34:35.139Z,95282.13
2023-05-20T23:39:37.860Z,95279.84
2023-05-20T23:44:40.305Z,95278.25
2023-05-20T23:49:42.650Z,95279.47
2023-05-20T23:54:45.495Z,95276.56
2023-05-20T23:59:49.896Z,95274.00
